Terminal Aerodrome Forecast
Issued by NWS Duluth, MN

Home | Current Version | Previous Version | Text Only | Print | Product List | Glossary On
Versions: 1 2 3 4 5 6 7 8 9 10 11 12 13 14 15 16 17 18 19 20 21 22 23 24 25 26 27 28 29 30 31 32 33 34 35 36 37
746
FTUS43 KDLH 220034 AAB
TAFDLH
TAF AMD
KDLH 220034Z 2201/2224 09008KT 1/2SM FZFG VV002
     FM220400 07009KT 2SM BR OVC003
     FM220800 07013G23KT P6SM VCSH OVC007
     FM221800 06013G23KT P6SM OVC010
     FM222200 04011G20KT P6SM OVC020=

USA.gov is the U.S. government's official web portal to all federal, state and local government web resources and services.